Terminal Aerodrome Forecast
Issued by NWS Lake Charles, LA

Home | Current Version | Previous Version | Text Only | Print | Product List | Glossary On
Versions: 1 2 3 4 5 6 7 8 9 10 11 12 13 14 15 16
000
FTUS44 KLCH 232326
TAFBPT
TAF
KBPT 232326Z 2400/2424 19006KT P6SM FEW040
     FM241500 20005KT P6SM VCSH SCT035
     FM241800 26003KT P6SM VCTS SCT040CB BKN050 BKN250
      TEMPO 2419/2423 P6SM -TSRA BKN050CB=

USA.gov is the U.S. government's official web portal to all federal, state and local government web resources and services.